sensor_id;sensor_type;location;lat;lon;timestamp;temperature;humidity
14006;DHT22;7078;51.542;7.314;2023-04-03T00:01:34;2.00;99.90
14006;DHT22;7078;51.542;7.314;2023-04-03T00:04:00;2.10;99.90
14006;DHT22;7078;51.542;7.314;2023-04-03T00:06:26;2.10;99.90
14006;DHT22;7078;51.542;7.314;2023-04-03T00:08:52;2.10;99.90
14006;DHT22;7078;51.542;7.314;2023-04-03T00:11:18;2.10;99.90
14006;DHT22;7078;51.542;7.314;2023-04-03T00:13:44;2.10;99.90
14006;DHT22;7078;51.542;7.314;2023-04-03T00:16:11;2.20;99.90
14006;DHT22;7078;51.542;7.314;2023-04-03T00:18:37;2.20;99.90
14006;DHT22;7078;51.542;7.314;2023-04-03T00:21:04;2.20;99.90
14006;DHT22;7078;51.542;7.314;2023-04-03T00:23:30;2.30;99.90
14006;DHT22;7078;51.542;7.314;2023-04-03T00:25:55;2.30;99.90
14006;DHT22;7078;51.542;7.314;2023-04-03T00:28:21;2.30;99.90
14006;DHT22;7078;51.542;7.314;2023-04-03T00:30:49;2.40;99.90
14006;DHT22;7078;51.542;7.314;2023-04-03T00:33:15;2.40;99.90
14006;DHT22;7078;51.542;7.314;2023-04-03T00:35:41;2.50;99.90
14006;DHT22;7078;51.542;7.314;2023-04-03T00:38:07;2.50;99.90
14006;DHT22;7078;51.542;7.314;2023-04-03T00:40:39;2.60;99.90
14006;DHT22;7078;51.542;7.314;2023-04-03T00:43:13;2.60;99.90
14006;DHT22;7078;51.542;7.314;2023-04-03T00:45:42;2.60;99.90
14006;DHT22;7078;51.542;7.314;2023-04-03T00:48:13;2.60;99.90
14006;DHT22;7078;51.542;7.314;2023-04-03T00:50:41;2.60;99.90
14006;DHT22;7078;51.542;7.314;2023-04-03T00:53:11;2.60;99.90
14006;DHT22;7078;51.542;7.314;2023-04-03T00:55:37;2.60;99.90
14006;DHT22;7078;51.542;7.314;2023-04-03T00:58:03;2.60;99.90
14006;DHT22;7078;51.542;7.314;2023-04-03T01:00:30;2.60;99.90
14006;DHT22;7078;51.542;7.314;2023-04-03T01:02:56;2.60;99.90
14006;DHT22;7078;51.542;7.314;2023-04-03T01:05:22;2.60;99.90
14006;DHT22;7078;51.542;7.314;2023-04-03T01:07:49;2.60;99.90
14006;DHT22;7078;51.542;7.314;2023-04-03T01:10:16;2.60;99.90
14006;DHT22;7078;51.542;7.314;2023-04-03T01:12:46;2.60;99.90
14006;DHT22;7078;51.542;7.314;2023-04-03T01:15:15;2.50;99.90
14006;DHT22;7078;51.542;7.314;2023-04-03T01:17:47;2.60;99.90
14006;DHT22;7078;51.542;7.314;2023-04-03T01:25:25;2.50;99.90
14006;DHT22;7078;51.542;7.314;2023-04-03T01:27:51;2.50;99.90
14006;DHT22;7078;51.542;7.314;2023-04-03T01:30:19;2.50;99.90
14006;DHT22;7078;51.542;7.314;2023-04-03T01:32:45;2.50;99.90
14006;DHT22;7078;51.542;7.314;2023-04-03T01:35:12;2.50;99.90
14006;DHT22;7078;51.542;7.314;2023-04-03T01:37:38;2.50;99.90
14006;DHT22;7078;51.542;7.314;2023-04-03T01:40:04;2.50;99.90
14006;DHT22;7078;51.542;7.314;2023-04-03T01:42:29;2.50;99.90
14006;DHT22;7078;51.542;7.314;2023-04-03T01:44:55;2.50;99.90
14006;DHT22;7078;51.542;7.314;2023-04-03T01:47:21;2.50;99.90
14006;DHT22;7078;51.542;7.314;2023-04-03T01:49:47;2.40;99.90
14006;DHT22;7078;51.542;7.314;2023-04-03T01:52:13;2.40;99.90
14006;DHT22;7078;51.542;7.314;2023-04-03T01:54:38;2.40;99.90
14006;DHT22;7078;51.542;7.314;2023-04-03T01:57:04;2.40;99.90
14006;DHT22;7078;51.542;7.314;2023-04-03T01:59:29;2.30;99.90
14006;DHT22;7078;51.542;7.314;2023-04-03T02:01:55;2.30;99.90
14006;DHT22;7078;51.542;7.314;2023-04-03T02:04:21;2.30;99.90
14006;DHT22;7078;51.542;7.314;2023-04-03T02:06:46;2.30;99.90
14006;DHT22;7078;51.542;7.314;2023-04-03T02:09:12;2.30;99.90
14006;DHT22;7078;51.542;7.314;2023-04-03T02:11:38;2.30;99.90
14006;DHT22;7078;51.542;7.314;2023-04-03T02:14:03;2.30;99.90
14006;DHT22;7078;51.542;7.314;2023-04-03T02:16:29;2.30;99.90
14006;DHT22;7078;51.542;7.314;2023-04-03T02:18:56;2.20;99.90
14006;DHT22;7078;51.542;7.314;2023-04-03T02:21:21;2.30;99.90
14006;DHT22;7078;51.542;7.314;2023-04-03T02:23:47;2.20;99.90
14006;DHT22;7078;51.542;7.314;2023-04-03T02:26:14;2.20;99.90
14006;DHT22;7078;51.542;7.314;2023-04-03T02:28:40;2.20;99.90
14006;DHT22;7078;51.542;7.314;2023-04-03T02:31:07;2.20;99.90
14006;DHT22;7078;51.542;7.314;2023-04-03T02:33:34;2.10;99.90
14006;DHT22;7078;51.542;7.314;2023-04-03T02:36:01;2.10;99.90
14006;DHT22;7078;51.542;7.314;2023-04-03T02:38:26;2.10;99.90
14006;DHT22;7078;51.542;7.314;2023-04-03T02:40:52;2.10;99.90
14006;DHT22;7078;51.542;7.314;2023-04-03T02:43:18;2.00;99.90
14006;DHT22;7078;51.542;7.314;2023-04-03T02:45:44;2.00;99.90
14006;DHT22;7078;51.542;7.314;2023-04-03T02:48:09;2.00;99.90
14006;DHT22;7078;51.542;7.314;2023-04-03T02:50:35;2.00;99.90
14006;DHT22;7078;51.542;7.314;2023-04-03T02:53:00;2.00;99.90
14006;DHT22;7078;51.542;7.314;2023-04-03T02:55:26;1.90;99.90
14006;DHT22;7078;51.542;7.314;2023-04-03T02:57:51;1.90;99.90
14006;DHT22;7078;51.542;7.314;2023-04-03T03:00:17;1.90;99.90
14006;DHT22;7078;51.542;7.314;2023-04-03T03:02:43;1.90;99.90
14006;DHT22;7078;51.542;7.314;2023-04-03T03:05:08;1.90;99.90
14006;DHT22;7078;51.542;7.314;2023-04-03T03:07:34;1.90;99.90
14006;DHT22;7078;51.542;7.314;2023-04-03T03:10:00;1.80;99.90
14006;DHT22;7078;51.542;7.314;2023-04-03T03:12:25;1.80;99.90
14006;DHT22;7078;51.542;7.314;2023-04-03T03:14:51;1.80;99.90
14006;DHT22;7078;51.542;7.314;2023-04-03T03:17:17;1.80;99.90
14006;DHT22;7078;51.542;7.314;2023-04-03T03:19:43;1.80;99.90
14006;DHT22;7078;51.542;7.314;2023-04-03T03:22:09;1.80;99.90
14006;DHT22;7078;51.542;7.314;2023-04-03T03:24:34;1.80;99.90
14006;DHT22;7078;51.542;7.314;2023-04-03T03:27:00;1.70;99.90
14006;DHT22;7078;51.542;7.314;2023-04-03T03:29:25;1.70;99.90
14006;DHT22;7078;51.542;7.314;2023-04-03T03:31:51;1.80;99.90
14006;DHT22;7078;51.542;7.314;2023-04-03T03:34:16;1.70;99.90
14006;DHT22;7078;51.542;7.314;2023-04-03T03:36:42;1.70;99.90
14006;DHT22;7078;51.542;7.314;2023-04-03T03:39:07;1.70;99.90
14006;DHT22;7078;51.542;7.314;2023-04-03T03:41:33;1.70;99.90
14006;DHT22;7078;51.542;7.314;2023-04-03T03:43:58;1.70;99.90
14006;DHT22;7078;51.542;7.314;2023-04-03T03:46:24;1.70;99.90
14006;DHT22;7078;51.542;7.314;2023-04-03T03:48:50;1.60;99.90
14006;DHT22;7078;51.542;7.314;2023-04-03T03:51:15;1.60;99.90
14006;DHT22;7078;51.542;7.314;2023-04-03T03:53:41;1.50;99.90
14006;DHT22;7078;51.542;7.314;2023-04-03T03:56:07;1.50;99.90
14006;DHT22;7078;51.542;7.314;2023-04-03T03:58:32;1.50;99.90
14006;DHT22;7078;51.542;7.314;2023-04-03T04:01:02;1.50;99.90
14006;DHT22;7078;51.542;7.314;2023-04-03T04:03:28;1.40;99.90
14006;DHT22;7078;51.542;7.314;2023-04-03T04:05:54;1.40;99.90
14006;DHT22;7078;51.542;7.314;2023-04-03T04:08:20;1.40;99.90
14006;DHT22;7078;51.542;7.314;2023-04-03T04:10:45;1.40;99.90
14006;DHT22;7078;51.542;7.314;2023-04-03T04:13:11;1.40;99.90
14006;DHT22;7078;51.542;7.314;2023-04-03T04:15:36;1.40;99.90
14006;DHT22;7078;51.542;7.314;2023-04-03T04:18:02;1.30;99.90
14006;DHT22;7078;51.542;7.314;2023-04-03T04:20:28;1.30;99.90
14006;DHT22;7078;51.542;7.314;2023-04-03T04:22:54;1.30;99.90
14006;DHT22;7078;51.542;7.314;2023-04-03T04:25:19;1.30;99.90
14006;DHT22;7078;51.542;7.314;2023-04-03T04:27:45;1.30;99.90
14006;DHT22;7078;51.542;7.314;2023-04-03T04:30:11;1.20;99.90
14006;DHT22;7078;51.542;7.314;2023-04-03T04:32:37;1.40;99.90
14006;DHT22;7078;51.542;7.314;2023-04-03T04:35:03;1.20;99.90
14006;DHT22;7078;51.542;7.314;2023-04-03T04:37:29;1.20;99.90
14006;DHT22;7078;51.542;7.314;2023-04-03T04:39:55;1.20;99.90
14006;DHT22;7078;51.542;7.314;2023-04-03T04:42:21;1.20;99.90
14006;DHT22;7078;51.542;7.314;2023-04-03T04:44:46;1.20;99.90
14006;DHT22;7078;51.542;7.314;2023-04-03T04:47:12;1.10;99.90
14006;DHT22;7078;51.542;7.314;2023-04-03T04:49:37;1.10;99.90
14006;DHT22;7078;51.542;7.314;2023-04-03T04:52:03;1.10;99.90
14006;DHT22;7078;51.542;7.314;2023-04-03T04:54:29;1.10;99.90
14006;DHT22;7078;51.542;7.314;2023-04-03T04:56:54;1.10;99.90
14006;DHT22;7078;51.542;7.314;2023-04-03T04:59:20;1.10;99.90
14006;DHT22;7078;51.542;7.314;2023-04-03T05:01:46;1.10;99.90
14006;DHT22;7078;51.542;7.314;2023-04-03T05:04:11;1.10;99.90
14006;DHT22;7078;51.542;7.314;2023-04-03T05:06:38;1.00;99.90
14006;DHT22;7078;51.542;7.314;2023-04-03T05:09:03;1.00;99.90
14006;DHT22;7078;51.542;7.314;2023-04-03T05:11:29;1.00;99.90
14006;DHT22;7078;51.542;7.314;2023-04-03T05:13:55;1.00;99.90
14006;DHT22;7078;51.542;7.314;2023-04-03T05:16:21;1.00;99.90
14006;DHT22;7078;51.542;7.314;2023-04-03T05:18:46;1.00;99.90
14006;DHT22;7078;51.542;7.314;2023-04-03T05:21:12;1.00;99.90
14006;DHT22;7078;51.542;7.314;2023-04-03T05:23:37;1.00;99.90
14006;DHT22;7078;51.542;7.314;2023-04-03T05:26:03;1.00;99.90
14006;DHT22;7078;51.542;7.314;2023-04-03T05:28:28;1.00;99.90
14006;DHT22;7078;51.542;7.314;2023-04-03T05:30:56;1.00;99.90
14006;DHT22;7078;51.542;7.314;2023-04-03T05:33:22;1.00;99.90
14006;DHT22;7078;51.542;7.314;2023-04-03T05:35:48;1.00;99.90
14006;DHT22;7078;51.542;7.314;2023-04-03T05:38:13;1.10;99.90
14006;DHT22;7078;51.542;7.314;2023-04-03T05:40:40;1.10;99.90
14006;DHT22;7078;51.542;7.314;2023-04-03T05:43:05;1.10;99.90
14006;DHT22;7078;51.542;7.314;2023-04-03T05:45:31;1.20;99.90
14006;DHT22;7078;51.542;7.314;2023-04-03T05:47:57;1.20;99.90
14006;DHT22;7078;51.542;7.314;2023-04-03T05:50:22;1.30;99.90
14006;DHT22;7078;51.542;7.314;2023-04-03T05:52:49;1.40;99.90
14006;DHT22;7078;51.542;7.314;2023-04-03T05:55:16;1.50;99.90
14006;DHT22;7078;51.542;7.314;2023-04-03T05:57:42;1.50;99.90
14006;DHT22;7078;51.542;7.314;2023-04-03T06:00:10;1.60;99.90
14006;DHT22;7078;51.542;7.314;2023-04-03T06:02:37;1.70;99.90
14006;DHT22;7078;51.542;7.314;2023-04-03T06:05:03;1.70;99.90
14006;DHT22;7078;51.542;7.314;2023-04-03T06:07:29;1.80;99.90
14006;DHT22;7078;51.542;7.314;2023-04-03T06:09:57;1.80;99.90
14006;DHT22;7078;51.542;7.314;2023-04-03T06:12:23;1.90;99.90
14006;DHT22;7078;51.542;7.314;2023-04-03T06:14:48;2.00;99.90
14006;DHT22;7078;51.542;7.314;2023-04-03T06:17:15;2.00;99.90
14006;DHT22;7078;51.542;7.314;2023-04-03T06:19:42;2.10;99.90
14006;DHT22;7078;51.542;7.314;2023-04-03T06:22:07;2.10;99.90
14006;DHT22;7078;51.542;7.314;2023-04-03T06:24:33;2.20;99.90
14006;DHT22;7078;51.542;7.314;2023-04-03T06:26:58;2.20;99.90
14006;DHT22;7078;51.542;7.314;2023-04-03T06:29:24;2.20;99.90
14006;DHT22;7078;51.542;7.314;2023-04-03T06:31:51;2.30;99.90
14006;DHT22;7078;51.542;7.314;2023-04-03T06:34:17;2.30;99.90
14006;DHT22;7078;51.542;7.314;2023-04-03T06:36:43;2.30;99.90
14006;DHT22;7078;51.542;7.314;2023-04-03T06:39:14;2.40;99.90
14006;DHT22;7078;51.542;7.314;2023-04-03T06:41:40;2.40;99.90
14006;DHT22;7078;51.542;7.314;2023-04-03T06:44:06;2.80;99.90
14006;DHT22;7078;51.542;7.314;2023-04-03T06:46:33;3.20;99.90
14006;DHT22;7078;51.542;7.314;2023-04-03T06:48:58;3.40;99.90
14006;DHT22;7078;51.542;7.314;2023-04-03T06:51:26;3.40;99.90
14006;DHT22;7078;51.542;7.314;2023-04-03T06:53:54;3.40;99.90
14006;DHT22;7078;51.542;7.314;2023-04-03T06:56:20;3.30;99.90
14006;DHT22;7078;51.542;7.314;2023-04-03T06:58:46;3.20;99.90
14006;DHT22;7078;51.542;7.314;2023-04-03T07:01:17;3.10;99.90
14006;DHT22;7078;51.542;7.314;2023-04-03T07:03:44;3.00;99.90
14006;DHT22;7078;51.542;7.314;2023-04-03T07:06:12;3.00;99.90
14006;DHT22;7078;51.542;7.314;2023-04-03T07:08:38;3.00;99.90
14006;DHT22;7078;51.542;7.314;2023-04-03T07:11:05;3.00;99.90
14006;DHT22;7078;51.542;7.314;2023-04-03T07:13:31;3.00;99.90
14006;DHT22;7078;51.542;7.314;2023-04-03T07:15:56;3.00;99.90
14006;DHT22;7078;51.542;7.314;2023-04-03T07:18:22;3.00;99.90
14006;DHT22;7078;51.542;7.314;2023-04-03T07:20:48;3.00;99.90
14006;DHT22;7078;51.542;7.314;2023-04-03T07:23:14;3.00;99.90
14006;DHT22;7078;51.542;7.314;2023-04-03T07:25:45;3.00;99.90
14006;DHT22;7078;51.542;7.314;2023-04-03T07:28:11;3.10;99.90
14006;DHT22;7078;51.542;7.314;2023-04-03T07:30:45;3.10;99.90
14006;DHT22;7078;51.542;7.314;2023-04-03T07:33:13;3.20;99.90
14006;DHT22;7078;51.542;7.314;2023-04-03T07:35:39;3.30;99.90
14006;DHT22;7078;51.542;7.314;2023-04-03T07:38:05;3.40;99.90
14006;DHT22;7078;51.542;7.314;2023-04-03T07:40:31;3.40;99.90
14006;DHT22;7078;51.542;7.314;2023-04-03T07:42:57;3.50;99.90
14006;DHT22;7078;51.542;7.314;2023-04-03T07:45:23;3.60;99.90
14006;DHT22;7078;51.542;7.314;2023-04-03T07:47:49;3.60;99.90
14006;DHT22;7078;51.542;7.314;2023-04-03T07:50:15;3.80;99.90
14006;DHT22;7078;51.542;7.314;2023-04-03T07:52:41;3.80;99.90
14006;DHT22;7078;51.542;7.314;2023-04-03T07:55:07;3.80;99.90
14006;DHT22;7078;51.542;7.314;2023-04-03T07:57:32;3.80;99.90
14006;DHT22;7078;51.542;7.314;2023-04-03T07:59:58;3.80;99.90
14006;DHT22;7078;51.542;7.314;2023-04-03T08:02:23;3.90;99.90
14006;DHT22;7078;51.542;7.314;2023-04-03T08:04:49;4.00;99.90
14006;DHT22;7078;51.542;7.314;2023-04-03T08:07:15;4.00;99.90
14006;DHT22;7078;51.542;7.314;2023-04-03T08:09:41;4.00;99.90
14006;DHT22;7078;51.542;7.314;2023-04-03T08:12:06;4.10;99.90
14006;DHT22;7078;51.542;7.314;2023-04-03T08:14:32;4.10;99.90
14006;DHT22;7078;51.542;7.314;2023-04-03T08:17:00;4.20;99.90
14006;DHT22;7078;51.542;7.314;2023-04-03T08:19:26;4.30;99.90
14006;DHT22;7078;51.542;7.314;2023-04-03T08:21:53;4.40;99.90
14006;DHT22;7078;51.542;7.314;2023-04-03T08:24:18;4.40;99.90
14006;DHT22;7078;51.542;7.314;2023-04-03T08:26:44;4.40;99.90
14006;DHT22;7078;51.542;7.314;2023-04-03T08:29:10;4.60;99.90
14006;DHT22;7078;51.542;7.314;2023-04-03T08:31:35;4.60;99.90
14006;DHT22;7078;51.542;7.314;2023-04-03T08:34:01;4.70;99.90
14006;DHT22;7078;51.542;7.314;2023-04-03T08:36:29;4.90;99.90
14006;DHT22;7078;51.542;7.314;2023-04-03T08:38:56;5.10;99.90
14006;DHT22;7078;51.542;7.314;2023-04-03T08:47:20;5.10;99.90
14006;DHT22;7078;51.542;7.314;2023-04-03T08:50:08;5.10;99.90
14006;DHT22;7078;51.542;7.314;2023-04-03T08:52:44;5.20;98.70
14006;DHT22;7078;51.542;7.314;2023-04-03T08:56:02;5.20;97.10
14006;DHT22;7078;51.542;7.314;2023-04-03T08:58:20;5.30;99.00
14006;DHT22;7078;51.542;7.314;2023-04-03T09:03:13;5.50;97.80
14006;DHT22;7078;51.542;7.314;2023-04-03T09:05:45;5.60;96.50
14006;DHT22;7078;51.542;7.314;2023-04-03T09:08:27;5.70;97.00
14006;DHT22;7078;51.542;7.314;2023-04-03T09:13:54;6.00;94.40
14006;DHT22;7078;51.542;7.314;2023-04-03T09:16:28;6.10;93.80
14006;DHT22;7078;51.542;7.314;2023-04-03T09:22:25;6.00;90.30
14006;DHT22;7078;51.542;7.314;2023-04-03T09:25:33;6.00;90.40
14006;DHT22;7078;51.542;7.314;2023-04-03T09:28:00;6.10;92.20
14006;DHT22;7078;51.542;7.314;2023-04-03T09:30:27;6.20;92.70
14006;DHT22;7078;51.542;7.314;2023-04-03T09:32:56;6.40;91.90
14006;DHT22;7078;51.542;7.314;2023-04-03T09:35:31;6.50;91.30
14006;DHT22;7078;51.542;7.314;2023-04-03T09:38:00;6.60;90.10
14006;DHT22;7078;51.542;7.314;2023-04-03T09:42:53;6.60;86.80
14006;DHT22;7078;51.542;7.314;2023-04-03T09:45:34;6.40;85.40
14006;DHT22;7078;51.542;7.314;2023-04-03T09:50:33;6.40;86.80
14006;DHT22;7078;51.542;7.314;2023-04-03T09:53:06;6.40;85.20
14006;DHT22;7078;51.542;7.314;2023-04-03T09:55:32;6.40;85.40
14006;DHT22;7078;51.542;7.314;2023-04-03T09:58:27;6.40;85.00
14006;DHT22;7078;51.542;7.314;2023-04-03T10:00:58;6.40;84.60
14006;DHT22;7078;51.542;7.314;2023-04-03T10:03:29;6.40;85.20
14006;DHT22;7078;51.542;7.314;2023-04-03T10:05:55;6.50;84.40
14006;DHT22;7078;51.542;7.314;2023-04-03T10:08:26;6.60;84.30
14006;DHT22;7078;51.542;7.314;2023-04-03T10:11:17;6.70;83.10
14006;DHT22;7078;51.542;7.314;2023-04-03T10:13:58;6.90;81.20
14006;DHT22;7078;51.542;7.314;2023-04-03T10:16:53;6.90;81.50
14006;DHT22;7078;51.542;7.314;2023-04-03T10:19:34;7.00;81.40
14006;DHT22;7078;51.542;7.314;2023-04-03T10:22:21;7.10;83.10
14006;DHT22;7078;51.542;7.314;2023-04-03T10:24:56;7.10;81.20
14006;DHT22;7078;51.542;7.314;2023-04-03T10:28:01;7.20;81.00
14006;DHT22;7078;51.542;7.314;2023-04-03T10:38:30;7.40;81.10
14006;DHT22;7078;51.542;7.314;2023-04-03T10:43:59;7.50;77.40
14006;DHT22;7078;51.542;7.314;2023-04-03T10:46:39;7.50;77.20
14006;DHT22;7078;51.542;7.314;2023-04-03T10:51:44;7.40;77.30
14006;DHT22;7078;51.542;7.314;2023-04-03T10:54:24;7.40;76.80
14006;DHT22;7078;51.542;7.314;2023-04-03T10:57:06;7.50;78.70
14006;DHT22;7078;51.542;7.314;2023-04-03T11:00:01;7.50;76.90
14006;DHT22;7078;51.542;7.314;2023-04-03T11:05:04;7.70;76.40
14006;DHT22;7078;51.542;7.314;2023-04-03T11:07:39;7.70;75.50
14006;DHT22;7078;51.542;7.314;2023-04-03T11:10:17;7.80;76.30
14006;DHT22;7078;51.542;7.314;2023-04-03T11:13:03;8.00;77.20
14006;DHT22;7078;51.542;7.314;2023-04-03T11:15:33;8.00;75.50
14006;DHT22;7078;51.542;7.314;2023-04-03T11:18:04;8.10;74.50
14006;DHT22;7078;51.542;7.314;2023-04-03T11:20:33;8.10;73.00
14006;DHT22;7078;51.542;7.314;2023-04-03T11:25:52;8.10;72.60
14006;DHT22;7078;51.542;7.314;2023-04-03T11:28:19;8.20;71.90
14006;DHT22;7078;51.542;7.314;2023-04-03T11:30:58;8.30;70.50
14006;DHT22;7078;51.542;7.314;2023-04-03T11:38:49;8.20;73.20
14006;DHT22;7078;51.542;7.314;2023-04-03T11:41:16;8.30;71.80
14006;DHT22;7078;51.542;7.314;2023-04-03T11:44:34;8.40;72.10
14006;DHT22;7078;51.542;7.314;2023-04-03T11:47:03;8.50;69.40
14006;DHT22;7078;51.542;7.314;2023-04-03T12:05:54;9.10;66.50
14006;DHT22;7078;51.542;7.314;2023-04-03T12:08:50;9.00;68.30
14006;DHT22;7078;51.542;7.314;2023-04-03T12:11:20;8.90;68.60
14006;DHT22;7078;51.542;7.314;2023-04-03T12:26:51;9.10;69.20
14006;DHT22;7078;51.542;7.314;2023-04-03T12:32:19;9.20;68.30
14006;DHT22;7078;51.542;7.314;2023-04-03T12:39:51;9.30;68.10
14006;DHT22;7078;51.542;7.314;2023-04-03T12:42:47;9.20;68.10
14006;DHT22;7078;51.542;7.314;2023-04-03T12:45:21;9.20;68.40
14006;DHT22;7078;51.542;7.314;2023-04-03T12:47:49;9.10;67.20
14006;DHT22;7078;51.542;7.314;2023-04-03T12:50:29;9.10;69.60
14006;DHT22;7078;51.542;7.314;2023-04-03T12:53:11;9.10;68.00
14006;DHT22;7078;51.542;7.314;2023-04-03T12:55:37;9.10;69.60
14006;DHT22;7078;51.542;7.314;2023-04-03T12:58:23;9.00;68.30
14006;DHT22;7078;51.542;7.314;2023-04-03T13:01:24;9.20;69.40
14006;DHT22;7078;51.542;7.314;2023-04-03T13:03:55;9.10;68.70
14006;DHT22;7078;51.542;7.314;2023-04-03T13:06:43;9.20;69.20
14006;DHT22;7078;51.542;7.314;2023-04-03T13:09:27;9.40;69.80
14006;DHT22;7078;51.542;7.314;2023-04-03T13:12:03;9.30;67.40
14006;DHT22;7078;51.542;7.314;2023-04-03T13:14:29;9.40;67.20
14006;DHT22;7078;51.542;7.314;2023-04-03T13:17:20;9.30;67.60
14006;DHT22;7078;51.542;7.314;2023-04-03T13:19:46;9.30;68.20
14006;DHT22;7078;51.542;7.314;2023-04-03T13:22:34;9.30;69.40
14006;DHT22;7078;51.542;7.314;2023-04-03T13:25:07;9.40;67.70
14006;DHT22;7078;51.542;7.314;2023-04-03T13:27:35;9.50;66.40
14006;DHT22;7078;51.542;7.314;2023-04-03T13:30:03;9.50;67.30
14006;DHT22;7078;51.542;7.314;2023-04-03T13:32:31;9.50;67.20
14006;DHT22;7078;51.542;7.314;2023-04-03T13:34:58;9.60;67.40
14006;DHT22;7078;51.542;7.314;2023-04-03T13:37:29;9.60;67.40
14006;DHT22;7078;51.542;7.314;2023-04-03T13:42:35;9.70;68.50
14006;DHT22;7078;51.542;7.314;2023-04-03T13:45:28;9.90;68.40
14006;DHT22;7078;51.542;7.314;2023-04-03T13:48:10;10.10;68.70
14006;DHT22;7078;51.542;7.314;2023-04-03T13:51:01;10.00;66.70
14006;DHT22;7078;51.542;7.314;2023-04-03T13:53:29;9.90;66.60
14006;DHT22;7078;51.542;7.314;2023-04-03T13:56:08;9.80;65.70
14006;DHT22;7078;51.542;7.314;2023-04-03T13:58:34;9.70;67.10
14006;DHT22;7078;51.542;7.314;2023-04-03T14:01:18;9.80;67.60
14006;DHT22;7078;51.542;7.314;2023-04-03T14:03:47;9.80;66.90
14006;DHT22;7078;51.542;7.314;2023-04-03T14:06:16;9.90;67.20
14006;DHT22;7078;51.542;7.314;2023-04-03T14:08:43;9.90;67.10
14006;DHT22;7078;51.542;7.314;2023-04-03T14:11:19;10.00;67.10
14006;DHT22;7078;51.542;7.314;2023-04-03T14:13:46;10.00;66.70
14006;DHT22;7078;51.542;7.314;2023-04-03T14:16:15;9.90;66.90
14006;DHT22;7078;51.542;7.314;2023-04-03T14:18:43;10.00;68.20
14006;DHT22;7078;51.542;7.314;2023-04-03T14:21:11;10.00;67.60
14006;DHT22;7078;51.542;7.314;2023-04-03T14:23:37;10.10;66.80
14006;DHT22;7078;51.542;7.314;2023-04-03T14:26:08;10.00;65.90
14006;DHT22;7078;51.542;7.314;2023-04-03T14:28:35;9.90;67.40
14006;DHT22;7078;51.542;7.314;2023-04-03T14:31:00;9.90;66.70
14006;DHT22;7078;51.542;7.314;2023-04-03T14:33:26;9.80;66.70
14006;DHT22;7078;51.542;7.314;2023-04-03T14:35:53;9.80;65.90
14006;DHT22;7078;51.542;7.314;2023-04-03T14:38:23;9.80;67.40
14006;DHT22;7078;51.542;7.314;2023-04-03T14:40:49;9.80;67.30
14006;DHT22;7078;51.542;7.314;2023-04-03T14:43:15;9.80;67.60
14006;DHT22;7078;51.542;7.314;2023-04-03T14:45:41;9.80;67.80
14006;DHT22;7078;51.542;7.314;2023-04-03T14:48:15;9.80;67.10
14006;DHT22;7078;51.542;7.314;2023-04-03T14:50:41;9.70;67.30
14006;DHT22;7078;51.542;7.314;2023-04-03T14:53:07;9.90;68.60
14006;DHT22;7078;51.542;7.314;2023-04-03T14:55:33;10.00;68.50
14006;DHT22;7078;51.542;7.314;2023-04-03T14:58:00;10.10;68.70
14006;DHT22;7078;51.542;7.314;2023-04-03T15:00:25;10.20;68.30
14006;DHT22;7078;51.542;7.314;2023-04-03T15:02:51;10.10;66.90
14006;DHT22;7078;51.542;7.314;2023-04-03T15:05:17;10.20;68.50
14006;DHT22;7078;51.542;7.314;2023-04-03T15:07:53;10.20;68.20
14006;DHT22;7078;51.542;7.314;2023-04-03T15:10:28;10.10;66.70
14006;DHT22;7078;51.542;7.314;2023-04-03T15:12:54;10.00;67.70
14006;DHT22;7078;51.542;7.314;2023-04-03T15:15:22;10.10;69.00
14006;DHT22;7078;51.542;7.314;2023-04-03T15:17:52;10.20;68.80
14006;DHT22;7078;51.542;7.314;2023-04-03T15:20:25;10.30;66.80
14006;DHT22;7078;51.542;7.314;2023-04-03T15:22:51;10.40;64.90
14006;DHT22;7078;51.542;7.314;2023-04-03T15:25:17;10.40;64.70
14006;DHT22;7078;51.542;7.314;2023-04-03T15:27:43;10.40;65.20
14006;DHT22;7078;51.542;7.314;2023-04-03T15:30:15;10.30;66.20
14006;DHT22;7078;51.542;7.314;2023-04-03T15:32:41;10.30;66.00
14006;DHT22;7078;51.542;7.314;2023-04-03T15:35:07;10.30;66.70
14006;DHT22;7078;51.542;7.314;2023-04-03T15:37:32;10.30;67.20
14006;DHT22;7078;51.542;7.314;2023-04-03T15:39:58;10.30;66.60
14006;DHT22;7078;51.542;7.314;2023-04-03T15:42:24;10.40;67.80
14006;DHT22;7078;51.542;7.314;2023-04-03T15:44:49;10.60;67.70
14006;DHT22;7078;51.542;7.314;2023-04-03T15:47:15;10.80;65.40
14006;DHT22;7078;51.542;7.314;2023-04-03T15:49:41;10.90;64.20
14006;DHT22;7078;51.542;7.314;2023-04-03T15:52:06;11.00;62.50
14006;DHT22;7078;51.542;7.314;2023-04-03T15:54:32;11.10;62.90
14006;DHT22;7078;51.542;7.314;2023-04-03T15:56:58;11.00;62.10
14006;DHT22;7078;51.542;7.314;2023-04-03T15:59:23;10.80;62.50
14006;DHT22;7078;51.542;7.314;2023-04-03T16:01:50;10.90;63.10
14006;DHT22;7078;51.542;7.314;2023-04-03T16:04:16;11.10;62.90
14006;DHT22;7078;51.542;7.314;2023-04-03T16:06:43;11.10;62.50
14006;DHT22;7078;51.542;7.314;2023-04-03T16:09:09;11.30;63.70
14006;DHT22;7078;51.542;7.314;2023-04-03T16:11:35;11.40;62.60
14006;DHT22;7078;51.542;7.314;2023-04-03T16:14:02;11.60;62.90
14006;DHT22;7078;51.542;7.314;2023-04-03T16:16:28;11.90;62.20
14006;DHT22;7078;51.542;7.314;2023-04-03T16:18:54;12.00;60.90
14006;DHT22;7078;51.542;7.314;2023-04-03T16:21:20;11.80;60.40
14006;DHT22;7078;51.542;7.314;2023-04-03T16:23:46;12.00;60.10
14006;DHT22;7078;51.542;7.314;2023-04-03T16:26:12;12.00;58.90
14006;DHT22;7078;51.542;7.314;2023-04-03T16:28:38;11.90;58.60
14006;DHT22;7078;51.542;7.314;2023-04-03T16:31:05;11.90;58.30
14006;DHT22;7078;51.542;7.314;2023-04-03T16:33:31;12.10;59.20
14006;DHT22;7078;51.542;7.314;2023-04-03T16:35:56;12.20;58.70
14006;DHT22;7078;51.542;7.314;2023-04-03T16:38:22;12.30;58.50
14006;DHT22;7078;51.542;7.314;2023-04-03T16:40:48;12.70;58.50
14006;DHT22;7078;51.542;7.314;2023-04-03T16:43:15;13.80;57.70
14006;DHT22;7078;51.542;7.314;2023-04-03T16:45:41;14.80;56.70
14006;DHT22;7078;51.542;7.314;2023-04-03T16:48:09;15.30;54.60
14006;DHT22;7078;51.542;7.314;2023-04-03T16:50:35;15.40;53.10
14006;DHT22;7078;51.542;7.314;2023-04-03T16:53:01;14.90;53.80
14006;DHT22;7078;51.542;7.314;2023-04-03T16:55:28;14.30;54.40
14006;DHT22;7078;51.542;7.314;2023-04-03T16:57:54;13.70;55.70
14006;DHT22;7078;51.542;7.314;2023-04-03T17:00:20;13.30;55.80
14006;DHT22;7078;51.542;7.314;2023-04-03T17:02:46;12.50;56.80
14006;DHT22;7078;51.542;7.314;2023-04-03T17:05:12;11.90;57.90
14006;DHT22;7078;51.542;7.314;2023-04-03T17:07:37;11.40;58.70
14006;DHT22;7078;51.542;7.314;2023-04-03T17:10:03;10.70;60.10
14006;DHT22;7078;51.542;7.314;2023-04-03T17:12:29;10.10;62.30
14006;DHT22;7078;51.542;7.314;2023-04-03T17:14:54;9.70;64.00
14006;DHT22;7078;51.542;7.314;2023-04-03T17:17:22;9.50;64.90
14006;DHT22;7078;51.542;7.314;2023-04-03T17:19:49;9.30;66.20
14006;DHT22;7078;51.542;7.314;2023-04-03T17:22:15;9.20;66.50
14006;DHT22;7078;51.542;7.314;2023-04-03T17:24:41;9.00;66.70
14006;DHT22;7078;51.542;7.314;2023-04-03T17:27:07;9.00;80.60
14006;DHT22;7078;51.542;7.314;2023-04-03T17:29:32;9.10;75.60
14006;DHT22;7078;51.542;7.314;2023-04-03T17:31:58;9.10;74.10
14006;DHT22;7078;51.542;7.314;2023-04-03T17:34:24;9.00;69.80
14006;DHT22;7078;51.542;7.314;2023-04-03T17:36:49;8.90;69.00
14006;DHT22;7078;51.542;7.314;2023-04-03T17:39:15;8.80;71.00